createdAt,value
2022-08-25T00:00:31.823Z,20.32
2022-08-25T00:01:32.315Z,20.34
2022-08-25T00:02:31.824Z,20.33
2022-08-25T00:03:36.002Z,20.30
2022-08-25T00:04:31.746Z,20.25
2022-08-25T00:05:33.335Z,20.22
2022-08-25T00:06:31.734Z,20.22
2022-08-25T00:07:31.719Z,20.18
2022-08-25T00:08:31.686Z,20.22
2022-08-25T00:09:31.701Z,20.18
2022-08-25T00:10:31.657Z,20.19
2022-08-25T00:11:31.688Z,20.25
2022-08-25T00:12:31.633Z,20.23
2022-08-25T00:13:31.645Z,20.18
2022-08-25T00:14:31.613Z,20.17
2022-08-25T00:15:31.679Z,20.12
2022-08-25T00:16:31.643Z,20.05
2022-08-25T00:17:31.602Z,19.99
2022-08-25T00:18:31.559Z,19.96
2022-08-25T00:19:31.561Z,19.89
2022-08-25T00:20:31.530Z,19.84
2022-08-25T00:21:31.531Z,19.82
2022-08-25T00:22:31.541Z,19.81
2022-08-25T00:23:31.504Z,19.81
2022-08-25T00:24:31.481Z,19.81
2022-08-25T00:25:31.486Z,19.77
2022-08-25T00:26:31.449Z,19.74
2022-08-25T00:27:31.496Z,19.70
2022-08-25T00:28:31.430Z,19.62
2022-08-25T00:29:31.438Z,19.57
2022-08-25T00:30:31.418Z,19.53
2022-08-25T00:31:38.231Z,19.50
2022-08-25T00:32:31.402Z,19.50
2022-08-25T00:33:31.397Z,19.57
2022-08-25T00:34:31.357Z,19.67
2022-08-25T00:35:31.353Z,19.72
2022-08-25T00:36:31.319Z,19.74
2022-08-25T00:37:31.324Z,19.77
2022-08-25T00:38:31.323Z,19.74
2022-08-25T00:39:31.300Z,19.70
2022-08-25T00:40:31.348Z,19.67
2022-08-25T00:41:31.297Z,19.62
2022-08-25T00:42:31.254Z,19.64
2022-08-25T00:43:31.253Z,19.70
2022-08-25T00:44:31.243Z,19.70
2022-08-25T00:45:31.215Z,19.68
2022-08-25T00:46:31.288Z,19.71
2022-08-25T00:47:31.199Z,19.70
2022-08-25T00:48:31.168Z,19.67
2022-08-25T00:49:31.191Z,19.68
2022-08-25T00:50:31.135Z,19.64
2022-08-25T00:51:31.148Z,19.63
2022-08-25T00:52:31.127Z,19.60
2022-08-25T00:53:31.116Z,19.60
2022-08-25T00:54:31.085Z,19.62
2022-08-25T00:55:31.117Z,19.60
2022-08-25T00:56:31.062Z,19.54
2022-08-25T00:57:34.580Z,19.44
2022-08-25T00:58:31.033Z,19.38
2022-08-25T00:59:31.032Z,19.32
2022-08-25T01:00:31.042Z,19.30
2022-08-25T01:01:31.043Z,19.22
2022-08-25T01:02:31.053Z,19.12
2022-08-25T01:03:33.129Z,19.05
2022-08-25T01:04:30.957Z,18.94
2022-08-25T01:05:30.970Z,18.86
2022-08-25T01:06:30.972Z,18.78
2022-08-25T01:07:30.961Z,18.74
2022-08-25T01:08:30.902Z,18.78
2022-08-25T01:09:30.904Z,18.76
2022-08-25T01:10:30.884Z,18.78
2022-08-25T01:11:30.919Z,18.83
2022-08-25T01:12:30.852Z,18.83
2022-08-25T01:13:30.854Z,18.82
2022-08-25T01:14:30.822Z,18.81
2022-08-25T01:15:30.872Z,18.78
2022-08-25T01:16:30.804Z,18.76
2022-08-25T01:17:30.840Z,18.70
2022-08-25T01:18:30.772Z,18.70
2022-08-25T01:19:30.813Z,18.68
2022-08-25T01:20:30.764Z,18.66
2022-08-25T01:21:30.749Z,18.61
2022-08-25T01:22:30.767Z,18.61
2022-08-25T01:23:30.717Z,18.56
2022-08-25T01:24:30.710Z,18.49
2022-08-25T01:25:30.704Z,18.45
2022-08-25T01:26:31.108Z,18.42
2022-08-25T01:27:30.683Z,18.39
2022-08-25T01:28:30.669Z,18.39
2022-08-25T01:29:30.653Z,18.38
2022-08-25T01:30:30.627Z,18.36
2022-08-25T01:31:30.631Z,18.31
2022-08-25T01:32:30.585Z,18.28
2022-08-25T01:33:30.636Z,18.21
2022-08-25T01:34:30.586Z,18.13
2022-08-25T01:35:30.567Z,18.06
2022-08-25T01:36:30.539Z,17.97
2022-08-25T01:37:30.533Z,17.90
2022-08-25T01:38:30.521Z,17.87
2022-08-25T01:39:30.539Z,17.78
2022-08-25T01:40:30.519Z,17.73
2022-08-25T01:41:30.489Z,17.71
2022-08-25T01:42:30.478Z,17.71
2022-08-25T01:43:30.447Z,17.68
2022-08-25T01:44:30.478Z,17.68
2022-08-25T01:45:30.427Z,17.65
2022-08-25T01:46:30.464Z,17.57
2022-08-25T01:47:30.392Z,17.56
2022-08-25T01:48:30.396Z,17.52
2022-08-25T01:49:30.370Z,17.49
2022-08-25T01:50:30.398Z,17.49
2022-08-25T01:51:30.346Z,17.47
2022-08-25T01:52:30.345Z,17.46
2022-08-25T01:53:30.326Z,17.41
2022-08-25T01:54:30.327Z,17.37
2022-08-25T01:55:30.354Z,17.34
2022-08-25T01:56:30.293Z,17.31
2022-08-25T01:57:30.264Z,17.30
2022-08-25T01:58:30.276Z,17.32
2022-08-25T01:59:30.235Z,17.34
2022-08-25T02:00:30.261Z,17.37
2022-08-25T02:01:30.405Z,17.35
2022-08-25T02:02:31.658Z,17.37
2022-08-25T02:03:30.187Z,17.35
2022-08-25T02:04:30.196Z,17.32
2022-08-25T02:05:30.158Z,17.32
2022-08-25T02:06:30.268Z,17.31
2022-08-25T02:07:30.136Z,17.35
2022-08-25T02:08:30.136Z,17.39
2022-08-25T02:09:30.125Z,17.45
2022-08-25T02:10:30.106Z,17.45
2022-08-25T02:11:30.080Z,17.56
2022-08-25T02:12:30.104Z,17.65
2022-08-25T02:13:31.603Z,17.68
2022-08-25T02:14:30.056Z,17.65
2022-08-25T02:15:30.031Z,17.66
2022-08-25T02:16:30.087Z,17.59
2022-08-25T02:17:30.041Z,17.52
2022-08-25T02:18:30.006Z,17.49
2022-08-25T02:19:29.992Z,17.43
2022-08-25T02:20:29.978Z,17.39
2022-08-25T02:21:29.961Z,17.37
2022-08-25T02:22:29.961Z,17.35
2022-08-25T02:23:29.957Z,17.32
2022-08-25T02:24:29.922Z,17.27
2022-08-25T02:25:29.915Z,17.19
2022-08-25T02:26:29.900Z,17.10
2022-08-25T02:27:29.891Z,17.06
2022-08-25T02:28:29.922Z,17.02
2022-08-25T02:29:29.841Z,16.95
2022-08-25T02:30:29.889Z,16.94
2022-08-25T02:31:29.817Z,16.91
2022-08-25T02:32:29.823Z,16.87
2022-08-25T02:33:29.787Z,16.83
2022-08-25T02:34:29.831Z,16.76
2022-08-25T02:35:29.764Z,16.73
2022-08-25T02:36:29.767Z,16.74
2022-08-25T02:37:29.740Z,16.76
2022-08-25T02:38:29.750Z,16.80
2022-08-25T02:39:29.759Z,16.82
2022-08-25T02:40:29.789Z,16.79
2022-08-25T02:41:31.306Z,16.82
2022-08-25T02:42:29.695Z,16.82
2022-08-25T02:43:29.663Z,16.83
2022-08-25T02:44:29.669Z,16.92
2022-08-25T02:45:29.669Z,16.99
2022-08-25T02:46:29.709Z,17.02
2022-08-25T02:47:29.607Z,17.07
2022-08-25T02:48:29.651Z,17.06
2022-08-25T02:49:29.583Z,17.06
2022-08-25T02:50:29.630Z,17.02
2022-08-25T02:51:29.570Z,16.99
2022-08-25T02:52:29.558Z,16.95
2022-08-25T02:53:29.537Z,16.95
2022-08-25T02:54:29.542Z,16.98
2022-08-25T02:55:29.511Z,16.95
2022-08-25T02:56:29.533Z,16.90
2022-08-25T02:57:29.488Z,16.87
2022-08-25T02:58:29.494Z,16.83
2022-08-25T02:59:29.450Z,16.79
2022-08-25T03:00:29.459Z,16.72
2022-08-25T03:01:29.543Z,16.64
2022-08-25T03:02:29.444Z,16.61
2022-08-25T03:03:29.414Z,16.55
2022-08-25T03:04:29.505Z,16.54
2022-08-25T03:05:29.379Z,16.54
2022-08-25T03:06:29.379Z,16.55
2022-08-25T03:07:29.388Z,16.59
2022-08-25T03:08:29.355Z,16.55
2022-08-25T03:09:29.323Z,16.55
2022-08-25T03:10:29.327Z,16.55
2022-08-25T03:11:29.319Z,16.54
2022-08-25T03:12:29.335Z,16.51
2022-08-25T03:13:29.290Z,16.51
2022-08-25T03:14:29.273Z,16.51
2022-08-25T03:15:30.589Z,16.52
2022-08-25T03:16:29.267Z,16.55
2022-08-25T03:17:29.222Z,16.57
2022-08-25T03:18:29.246Z,16.61
2022-08-25T03:19:29.201Z,16.59
2022-08-25T03:20:29.216Z,16.61
2022-08-25T03:21:29.169Z,16.61
2022-08-25T03:22:29.171Z,16.64
2022-08-25T03:23:29.187Z,16.65
2022-08-25T03:24:29.150Z,16.65
2022-08-25T03:25:29.133Z,16.67
2022-08-25T03:26:29.121Z,16.65
2022-08-25T03:27:29.096Z,16.58
2022-08-25T03:28:30.163Z,16.54
2022-08-25T03:29:29.098Z,16.44
2022-08-25T03:30:29.067Z,16.37
2022-08-25T03:31:29.076Z,16.29
2022-08-25T03:32:29.044Z,16.25
2022-08-25T03:33:29.015Z,16.16
2022-08-25T03:34:29.049Z,16.10
2022-08-25T03:35:28.990Z,16.00
2022-08-25T03:36:28.987Z,15.93
2022-08-25T03:37:28.966Z,15.85
2022-08-25T03:38:28.960Z,15.73
2022-08-25T03:39:28.936Z,15.70
2022-08-25T03:40:29.020Z,15.65
2022-08-25T03:41:29.218Z,15.60
2022-08-25T03:42:28.912Z,15.54
2022-08-25T03:43:28.894Z,15.48
2022-08-25T03:44:28.887Z,15.47
2022-08-25T03:45:28.989Z,15.44
2022-08-25T03:46:28.866Z,15.44
2022-08-25T03:47:28.828Z,15.48
2022-08-25T03:48:28.829Z,15.48
2022-08-25T03:49:28.809Z,15.48
2022-08-25T03:50:28.802Z,15.48
2022-08-25T03:51:28.801Z,15.50
2022-08-25T03:52:28.805Z,15.51
2022-08-25T03:53:28.752Z,15.52
2022-08-25T03:54:28.759Z,15.54
2022-08-25T03:55:28.760Z,15.56
2022-08-25T03:56:28.768Z,15.60
2022-08-25T03:57:28.703Z,15.63
2022-08-25T03:58:28.710Z,15.66
2022-08-25T03:59:28.676Z,15.70
2022-08-25T04:00:28.672Z,15.76
2022-08-25T04:01:28.814Z,15.87
2022-08-25T04:02:28.660Z,15.98
2022-08-25T04:03:28.584Z,16.03
2022-08-25T04:04:28.566Z,16.14
2022-08-25T04:05:28.539Z,16.24
2022-08-25T04:06:28.549Z,16.26
2022-08-25T04:07:28.572Z,16.28
2022-08-25T04:08:28.518Z,16.29
2022-08-25T04:09:28.487Z,16.28
2022-08-25T04:10:28.488Z,16.25
2022-08-25T04:11:28.468Z,16.26
2022-08-25T04:12:28.458Z,16.24
2022-08-25T04:13:28.489Z,16.22
2022-08-25T04:14:28.437Z,16.21
2022-08-25T04:15:30.084Z,16.17
2022-08-25T04:16:28.460Z,16.16
2022-08-25T04:17:28.385Z,16.13
2022-08-25T04:18:28.418Z,16.09
2022-08-25T04:19:28.359Z,16.08
2022-08-25T04:20:28.358Z,16.08
2022-08-25T04:21:28.333Z,16.06
2022-08-25T04:22:29.856Z,16.13
2022-08-25T04:23:28.307Z,16.14
2022-08-25T04:24:28.343Z,16.16
2022-08-25T04:25:28.289Z,16.17
2022-08-25T04:26:28.308Z,16.21
2022-08-25T04:27:28.252Z,16.24
2022-08-25T04:28:28.272Z,16.21
2022-08-25T04:29:28.280Z,16.17
2022-08-25T04:30:28.238Z,16.13
2022-08-25T04:31:28.276Z,16.05
2022-08-25T04:32:28.210Z,15.99
2022-08-25T04:33:28.218Z,15.96
2022-08-25T04:34:30.767Z,15.96
2022-08-25T04:35:28.194Z,15.96
2022-08-25T04:36:28.164Z,15.91
2022-08-25T04:37:28.122Z,15.95
2022-08-25T04:38:28.128Z,15.88
2022-08-25T04:39:28.112Z,15.85
2022-08-25T04:40:28.933Z,15.83
2022-08-25T04:41:28.071Z,15.84
2022-08-25T04:42:28.090Z,15.81
2022-08-25T04:43:28.044Z,15.81
2022-08-25T04:44:28.068Z,15.84
2022-08-25T04:45:28.067Z,15.83
2022-08-25T04:46:28.049Z,15.78
2022-08-25T04:47:28.174Z,15.83
2022-08-25T04:48:28.001Z,15.88
2022-08-25T04:49:27.972Z,15.95
2022-08-25T04:50:27.968Z,16.08
2022-08-25T04:51:27.970Z,16.24
2022-08-25T04:52:27.936Z,16.37
2022-08-25T04:53:27.923Z,16.43
2022-08-25T04:54:27.912Z,16.51
2022-08-25T04:55:27.885Z,16.58
2022-08-25T04:56:27.894Z,16.59
2022-08-25T04:57:27.910Z,16.64
2022-08-25T04:58:27.868Z,16.69
2022-08-25T04:59:29.364Z,16.72
2022-08-25T05:00:27.833Z,16.76
2022-08-25T05:01:27.830Z,16.80
2022-08-25T05:02:27.808Z,16.82
2022-08-25T05:03:27.816Z,16.84
2022-08-25T05:04:29.063Z,16.87
2022-08-25T05:05:27.752Z,16.83
2022-08-25T05:06:27.762Z,16.83
2022-08-25T05:07:27.733Z,16.79
2022-08-25T05:08:27.736Z,16.87
2022-08-25T05:09:27.737Z,16.88
2022-08-25T05:10:27.705Z,16.95
2022-08-25T05:11:27.683Z,17.04
2022-08-25T05:12:27.685Z,17.12
2022-08-25T05:13:27.657Z,17.22
2022-08-25T05:14:27.665Z,17.28
2022-08-25T05:15:27.675Z,17.35
2022-08-25T05:16:27.683Z,17.39
2022-08-25T05:17:27.600Z,17.47
2022-08-25T05:18:27.599Z,17.53
2022-08-25T05:19:27.607Z,17.63
2022-08-25T05:20:27.575Z,17.71
2022-08-25T05:21:27.599Z,17.73
2022-08-25T05:22:27.545Z,17.78
2022-08-25T05:23:27.523Z,17.84
2022-08-25T05:24:27.526Z,17.90
2022-08-25T05:25:27.496Z,17.93
2022-08-25T05:26:27.504Z,17.97
2022-08-25T05:27:27.515Z,18.01
2022-08-25T05:28:27.473Z,18.09
2022-08-25T05:29:27.450Z,18.20
2022-08-25T05:30:27.479Z,18.31
2022-08-25T05:31:27.459Z,18.38
2022-08-25T05:32:27.415Z,18.41
2022-08-25T05:33:27.426Z,18.46
2022-08-25T05:34:27.414Z,18.58
2022-08-25T05:35:27.380Z,18.70
2022-08-25T05:36:27.373Z,18.79
2022-08-25T05:37:27.337Z,18.89
2022-08-25T05:38:27.362Z,19.09
2022-08-25T05:39:27.355Z,19.31
2022-08-25T05:40:27.363Z,19.49
2022-08-25T05:41:27.293Z,19.62
2022-08-25T05:42:27.297Z,19.75
2022-08-25T05:43:27.267Z,19.78
2022-08-25T05:44:27.265Z,19.84
2022-08-25T05:45:27.322Z,19.86
2022-08-25T05:46:27.244Z,19.86
2022-08-25T05:47:27.216Z,19.96
2022-08-25T05:48:27.211Z,20.05
2022-08-25T05:49:27.199Z,20.12
2022-08-25T05:50:27.198Z,20.17
2022-08-25T05:51:27.195Z,20.22
2022-08-25T05:52:27.167Z,20.19
2022-08-25T05:53:27.147Z,20.22
2022-08-25T05:54:27.157Z,20.29
2022-08-25T05:55:27.107Z,20.37
2022-08-25T05:56:27.105Z,20.42
2022-08-25T05:57:27.122Z,20.52
2022-08-25T05:58:27.071Z,20.49
2022-08-25T05:59:27.067Z,20.48
2022-08-25T06:00:27.040Z,20.53
2022-08-25T06:01:27.122Z,20.50
2022-08-25T06:02:27.010Z,20.52
2022-08-25T06:03:27.066Z,20.60
2022-08-25T06:04:26.987Z,20.63
2022-08-25T06:05:26.989Z,20.60
2022-08-25T06:06:26.965Z,20.52
2022-08-25T06:07:27.069Z,20.36
2022-08-25T06:08:26.946Z,20.19
2022-08-25T06:09:26.973Z,20.05
2022-08-25T06:10:27.046Z,19.90
2022-08-25T06:11:26.912Z,19.79
2022-08-25T06:12:26.888Z,19.75
2022-08-25T06:13:28.815Z,19.70
2022-08-25T06:14:26.859Z,19.67
2022-08-25T06:15:26.895Z,19.63
2022-08-25T06:16:26.891Z,19.63
2022-08-25T06:17:26.831Z,19.60
2022-08-25T06:18:26.807Z,19.63
2022-08-25T06:19:26.805Z,19.64
2022-08-25T06:20:26.838Z,19.64
2022-08-25T06:21:26.907Z,19.67
2022-08-25T06:22:26.747Z,19.71
2022-08-25T06:23:26.751Z,19.72
2022-08-25T06:24:26.724Z,19.77
2022-08-25T06:25:26.726Z,19.77
2022-08-25T06:26:26.707Z,19.79
2022-08-25T06:27:26.730Z,19.84
2022-08-25T06:28:26.683Z,19.87
2022-08-25T06:29:26.671Z,19.93
2022-08-25T06:30:28.840Z,19.97
2022-08-25T06:31:26.684Z,20.02
2022-08-25T06:32:26.636Z,20.05
2022-08-25T06:33:26.668Z,20.11
2022-08-25T06:34:26.621Z,20.15
2022-08-25T06:35:26.601Z,20.19
2022-08-25T06:36:26.571Z,20.25
2022-08-25T06:37:26.612Z,20.30
2022-08-25T06:38:26.555Z,20.32
2022-08-25T06:39:26.590Z,20.34
2022-08-25T06:40:26.689Z,20.37
2022-08-25T06:41:37.024Z,20.44
2022-08-25T06:42:26.505Z,20.50
2022-08-25T06:43:26.496Z,20.50
2022-08-25T06:44:26.466Z,20.55
2022-08-25T06:45:26.511Z,20.58
2022-08-25T06:46:36.578Z,20.65
2022-08-25T06:47:26.525Z,20.67
2022-08-25T06:48:26.420Z,20.70
2022-08-25T06:49:26.428Z,20.75
2022-08-25T06:50:26.406Z,20.75
2022-08-25T06:51:26.428Z,20.80
2022-08-25T06:52:29.090Z,20.83
2022-08-25T06:53:26.367Z,20.89
2022-08-25T06:54:26.347Z,20.93
2022-08-25T06:55:26.342Z,20.98
2022-08-25T06:56:26.690Z,21.00
2022-08-25T06:57:26.505Z,21.03
2022-08-25T06:58:26.296Z,21.04
2022-08-25T06:59:26.302Z,21.08
2022-08-25T07:00:30.647Z,21.13
2022-08-25T07:01:26.425Z,21.16
2022-08-25T07:02:26.326Z,21.30
2022-08-25T07:04:23.018Z,21.74
2022-08-25T07:05:33.515Z,21.96
2022-08-25T07:06:23.981Z,22.06
2022-08-25T07:07:23.980Z,22.19
2022-08-25T07:08:23.944Z,22.25
2022-08-25T07:09:23.994Z,22.36
2022-08-25T07:10:24.002Z,22.41
2022-08-25T07:11:23.950Z,22.49
2022-08-25T07:12:23.911Z,22.52
2022-08-25T07:13:23.897Z,22.62
2022-08-25T07:14:23.874Z,22.77
2022-08-25T07:15:23.913Z,22.95
2022-08-25T07:16:23.867Z,23.01
2022-08-25T07:17:23.902Z,23.07
2022-08-25T07:18:23.831Z,22.99
2022-08-25T07:19:23.820Z,22.99
2022-08-25T07:21:27.885Z,23.17
2022-08-25T07:22:23.782Z,23.25
2022-08-25T07:23:23.773Z,23.39
2022-08-25T07:24:23.745Z,23.49
2022-08-25T07:25:23.745Z,23.46
2022-08-25T07:26:39.315Z,23.55
2022-08-25T07:27:23.759Z,23.61
2022-08-25T07:28:23.686Z,23.64
2022-08-25T07:29:32.064Z,23.64
2022-08-25T07:30:23.753Z,23.69
2022-08-25T07:31:28.199Z,23.74
2022-08-25T07:32:23.641Z,23.86
2022-08-25T07:33:23.667Z,23.91
2022-08-25T07:34:23.603Z,23.89
2022-08-25T07:35:24.082Z,24.01
2022-08-25T07:36:23.579Z,24.11
2022-08-25T07:37:48.768Z,24.25
2022-08-25T07:38:23.569Z,24.41
2022-08-25T07:39:23.593Z,24.44
2022-08-25T07:40:23.680Z,24.51
2022-08-25T07:41:23.526Z,24.65
2022-08-25T07:42:23.498Z,24.75
2022-08-25T07:43:23.501Z,24.78
2022-08-25T07:44:23.476Z,24.71
2022-08-25T07:45:23.527Z,24.62
2022-08-25T07:46:23.476Z,24.76
2022-08-25T07:47:23.450Z,24.85
2022-08-25T07:48:23.427Z,24.93
2022-08-25T07:49:23.772Z,24.99
2022-08-25T07:50:23.395Z,24.96
2022-08-25T07:51:23.447Z,24.96
2022-08-25T07:52:23.360Z,25.03
2022-08-25T07:53:23.364Z,25.14
2022-08-25T07:54:23.339Z,25.19
2022-08-25T07:55:23.353Z,25.23
2022-08-25T07:56:23.315Z,25.28
2022-08-25T07:57:23.352Z,25.30
2022-08-25T07:58:23.302Z,25.41
2022-08-25T07:59:23.287Z,25.49
2022-08-25T08:00:24.469Z,25.61
2022-08-25T08:01:23.351Z,25.73
2022-08-25T08:02:24.781Z,25.77
2022-08-25T08:03:44.807Z,25.78
2022-08-25T08:04:23.214Z,25.85
2022-08-25T08:05:23.928Z,25.83
2022-08-25T08:06:23.181Z,25.78
2022-08-25T08:07:23.203Z,25.89
2022-08-25T08:08:23.151Z,26.00
2022-08-25T08:09:23.198Z,26.01
2022-08-25T08:10:47.901Z,26.11
2022-08-25T08:11:23.139Z,26.16
2022-08-25T08:12:23.106Z,26.23
2022-08-25T08:13:23.138Z,26.27
2022-08-25T08:14:23.077Z,26.23
2022-08-25T08:15:23.111Z,26.26
2022-08-25T08:16:23.121Z,26.26
2022-08-25T08:17:23.052Z,26.42
2022-08-25T08:18:23.028Z,26.56
2022-08-25T08:19:23.214Z,26.58
2022-08-25T08:20:23.227Z,26.49
2022-08-25T08:21:23.037Z,26.49
2022-08-25T08:22:22.977Z,26.60
2022-08-25T08:23:22.978Z,26.68
2022-08-25T08:24:40.835Z,26.70
2022-08-25T08:25:27.329Z,26.70
2022-08-25T08:26:31.717Z,26.70
2022-08-25T08:27:22.966Z,26.70
2022-08-25T08:28:22.904Z,26.70
2022-08-25T08:29:22.910Z,26.67
2022-08-25T08:30:25.997Z,26.71
2022-08-25T08:31:22.910Z,26.80
2022-08-25T08:32:23.143Z,26.68
2022-08-25T08:33:22.892Z,26.52
2022-08-25T08:34:24.850Z,26.38
2022-08-25T08:35:22.816Z,26.46
2022-08-25T08:36:22.794Z,26.46
2022-08-25T08:37:22.973Z,26.42
2022-08-25T08:38:27.142Z,26.41
2022-08-25T08:39:22.811Z,26.41
2022-08-25T08:40:22.769Z,26.41
2022-08-25T08:41:23.030Z,26.49
2022-08-25T08:42:22.717Z,26.60
2022-08-25T08:43:22.714Z,26.49
2022-08-25T08:44:22.681Z,26.70
2022-08-25T08:45:22.730Z,26.75
2022-08-25T08:46:22.763Z,26.79
2022-08-25T08:47:22.663Z,26.88
2022-08-25T08:48:22.658Z,26.89
2022-08-25T08:49:22.638Z,26.90
2022-08-25T08:50:28.010Z,26.89
2022-08-25T08:51:22.927Z,26.60
2022-08-25T08:52:22.582Z,26.71
2022-08-25T08:53:22.601Z,26.65
2022-08-25T08:54:23.150Z,26.61
2022-08-25T08:55:22.555Z,26.70
2022-08-25T08:56:22.529Z,26.86
2022-08-25T08:57:22.581Z,26.95
2022-08-25T08:58:26.107Z,26.95
2022-08-25T08:59:22.508Z,27.04
2022-08-25T09:00:22.517Z,27.17
2022-08-25T09:01:22.536Z,27.17
2022-08-25T09:02:50.273Z,27.27
2022-08-25T09:03:22.618Z,27.16
2022-08-25T09:04:24.387Z,27.17
2022-08-25T09:05:22.435Z,27.23
2022-08-25T09:06:22.403Z,27.19
2022-08-25T09:07:22.417Z,27.32
2022-08-25T09:08:22.388Z,27.45
2022-08-25T09:09:22.428Z,27.44
2022-08-25T09:10:22.350Z,27.52
2022-08-25T09:11:22.355Z,27.57
2022-08-25T09:12:22.339Z,27.68
2022-08-25T09:13:26.048Z,27.82
2022-08-25T09:14:22.327Z,27.80
2022-08-25T09:15:22.345Z,27.80
2022-08-25T09:16:23.350Z,27.88
2022-08-25T09:17:22.318Z,27.83
2022-08-25T09:18:22.253Z,27.79
2022-08-25T09:19:23.454Z,27.69
2022-08-25T09:20:22.269Z,27.61
2022-08-25T09:21:22.250Z,27.70
2022-08-25T09:22:35.116Z,27.79
2022-08-25T09:23:22.207Z,27.76
2022-08-25T09:24:22.181Z,27.79
2022-08-25T09:25:39.796Z,27.73
2022-08-25T09:26:22.214Z,27.79
2022-08-25T09:27:22.167Z,27.88
2022-08-25T09:28:22.115Z,28.00
2022-08-25T09:29:22.137Z,28.13
2022-08-25T09:30:22.106Z,28.15
2022-08-25T09:31:24.359Z,28.09
2022-08-25T09:32:24.180Z,28.10
2022-08-25T09:33:22.204Z,28.19
2022-08-25T09:34:22.049Z,28.25
2022-08-25T09:35:22.042Z,28.09
2022-08-25T09:36:22.061Z,28.16
2022-08-25T09:37:22.019Z,28.05
2022-08-25T09:38:22.021Z,28.07
2022-08-25T09:39:22.021Z,28.16
2022-08-25T09:40:22.006Z,28.22
2022-08-25T09:41:21.967Z,28.32
2022-08-25T09:42:24.008Z,28.47
2022-08-25T09:43:21.911Z,28.61
2022-08-25T09:44:21.940Z,28.61
2022-08-25T09:45:21.943Z,28.59
2022-08-25T09:46:21.934Z,28.53
2022-08-25T09:47:21.863Z,28.50
2022-08-25T09:48:21.883Z,28.65
2022-08-25T09:49:21.897Z,29.03
2022-08-25T09:50:21.840Z,29.22
2022-08-25T09:51:21.865Z,29.43
2022-08-25T09:52:21.824Z,29.50
2022-08-25T09:53:21.952Z,29.59
2022-08-25T09:54:25.461Z,29.58
2022-08-25T09:55:21.813Z,29.71
2022-08-25T09:56:21.770Z,29.86
2022-08-25T09:57:21.835Z,29.99
2022-08-25T09:58:22.309Z,29.98
2022-08-25T09:59:21.700Z,29.74
2022-08-25T10:00:21.738Z,29.70
2022-08-25T10:01:22.426Z,29.80
2022-08-25T10:02:21.683Z,29.81
2022-08-25T10:03:22.743Z,29.78
2022-08-25T10:04:21.658Z,29.91
2022-08-25T10:05:23.345Z,30.03
2022-08-25T10:06:21.712Z,29.99
2022-08-25T10:07:21.609Z,30.08
2022-08-25T10:08:21.676Z,30.18
2022-08-25T10:09:21.630Z,30.37
2022-08-25T10:10:21.591Z,30.33
2022-08-25T10:11:21.621Z,30.08
2022-08-25T10:12:21.577Z,30.14
2022-08-25T10:13:22.611Z,30.24
2022-08-25T10:14:21.573Z,30.22
2022-08-25T10:15:30.080Z,30.11
2022-08-25T10:16:24.497Z,30.22
2022-08-25T10:17:21.542Z,30.39
2022-08-25T10:18:21.553Z,30.60
2022-08-25T10:19:21.496Z,30.73
2022-08-25T10:20:20.467Z,30.70
2022-08-25T10:21:21.484Z,30.77
2022-08-25T10:22:21.446Z,30.68
2022-08-25T10:23:21.443Z,30.30
2022-08-25T10:24:21.478Z,30.46
2022-08-25T10:25:21.376Z,30.55
2022-08-25T10:26:21.393Z,30.45
2022-08-25T10:27:21.406Z,30.39
2022-08-25T10:28:21.368Z,30.36
2022-08-25T10:29:21.421Z,30.22
2022-08-25T10:30:21.379Z,30.39
2022-08-25T10:31:21.392Z,30.48
2022-08-25T10:32:21.308Z,30.60
2022-08-25T10:33:21.329Z,30.45
2022-08-25T10:34:21.339Z,30.52
2022-08-25T10:35:21.264Z,30.53
2022-08-25T10:36:21.430Z,30.74
2022-08-25T10:37:21.239Z,30.86
2022-08-25T10:38:21.529Z,30.80
2022-08-25T10:39:33.914Z,30.74
2022-08-25T10:40:21.309Z,30.62
2022-08-25T10:41:21.184Z,30.55
2022-08-25T10:42:26.068Z,30.67
2022-08-25T10:43:23.830Z,30.85
2022-08-25T10:44:21.157Z,30.83
2022-08-25T10:45:21.945Z,30.77
2022-08-25T10:46:21.243Z,30.90
2022-08-25T10:47:21.117Z,30.95
2022-08-25T10:48:22.321Z,30.85
2022-08-25T10:49:21.080Z,30.95
2022-08-25T10:50:21.094Z,31.12
2022-08-25T10:51:25.278Z,31.32
2022-08-25T10:52:21.063Z,31.32
2022-08-25T10:53:21.053Z,31.30
2022-08-25T10:54:21.034Z,31.38
2022-08-25T10:55:21.005Z,31.51
2022-08-25T10:56:21.030Z,31.59
2022-08-25T10:57:21.025Z,31.61
2022-08-25T10:58:20.985Z,31.78
2022-08-25T10:59:20.950Z,31.78
2022-08-25T11:00:20.959Z,31.67
2022-08-25T11:01:20.969Z,31.20
2022-08-25T11:02:20.961Z,30.60
2022-08-25T11:03:21.062Z,30.73
2022-08-25T11:04:20.912Z,30.65
2022-08-25T11:05:24.620Z,30.70
2022-08-25T11:06:20.884Z,30.68
2022-08-25T11:07:20.855Z,30.80
2022-08-25T11:08:20.856Z,30.90
2022-08-25T11:09:20.868Z,31.07
2022-08-25T11:10:20.841Z,31.23
2022-08-25T11:11:20.807Z,31.27
2022-08-25T11:12:20.855Z,31.26
2022-08-25T11:13:20.786Z,31.27
2022-08-25T11:14:20.796Z,31.29
2022-08-25T11:15:20.845Z,31.34
2022-08-25T11:16:20.765Z,31.39
2022-08-25T11:17:20.737Z,31.48
2022-08-25T11:18:20.762Z,31.23
2022-08-25T11:19:20.754Z,31.08
2022-08-25T11:20:27.078Z,31.17
2022-08-25T11:21:22.134Z,31.17
2022-08-25T11:22:20.754Z,31.17
2022-08-25T11:23:20.659Z,31.10
2022-08-25T11:24:20.753Z,30.93
2022-08-25T11:25:21.683Z,30.82
2022-08-25T11:26:20.633Z,30.74
2022-08-25T11:27:21.625Z,30.71
2022-08-25T11:28:20.625Z,30.80
2022-08-25T11:29:20.586Z,31.01
2022-08-25T11:30:20.592Z,31.05
2022-08-25T11:31:20.577Z,30.89
2022-08-25T11:32:20.594Z,30.83
2022-08-25T11:33:20.695Z,30.97
2022-08-25T11:34:20.555Z,31.07
2022-08-25T11:35:20.533Z,31.11
2022-08-25T11:36:20.508Z,31.20
2022-08-25T11:37:20.485Z,31.30
2022-08-25T11:38:20.846Z,31.48
2022-08-25T11:39:20.495Z,31.61
2022-08-25T11:40:20.573Z,31.71
2022-08-25T11:41:20.432Z,31.79
2022-08-25T11:42:20.449Z,31.87
2022-08-25T11:43:20.414Z,31.59
2022-08-25T11:44:20.459Z,31.44
2022-08-25T11:45:20.412Z,31.42
2022-08-25T11:46:20.436Z,31.48
2022-08-25T11:47:21.617Z,31.51
2022-08-25T11:48:20.373Z,31.37
2022-08-25T11:49:20.336Z,31.27
2022-08-25T11:50:20.347Z,30.96
2022-08-25T11:51:20.355Z,30.64
2022-08-25T11:52:20.332Z,30.43
2022-08-25T11:53:23.716Z,30.51
2022-08-25T11:54:20.305Z,30.60
2022-08-25T11:55:22.939Z,30.64
2022-08-25T11:56:20.281Z,30.56
2022-08-25T11:57:20.273Z,30.46
2022-08-25T11:58:20.317Z,30.39
2022-08-25T11:59:20.222Z,30.43
2022-08-25T12:00:20.223Z,30.43
2022-08-25T12:01:20.218Z,30.46
2022-08-25T12:02:20.201Z,30.49
2022-08-25T12:03:20.220Z,30.48
2022-08-25T12:04:20.224Z,30.52
2022-08-25T12:05:20.292Z,30.75
2022-08-25T12:06:20.206Z,31.01
2022-08-25T12:07:20.137Z,31.17
2022-08-25T12:08:20.155Z,31.24
2022-08-25T12:09:20.119Z,31.07
2022-08-25T12:10:20.157Z,30.75
2022-08-25T12:11:20.075Z,30.75
2022-08-25T12:12:20.066Z,30.62
2022-08-25T12:13:20.072Z,30.51
2022-08-25T12:14:20.035Z,30.56
2022-08-25T12:15:20.042Z,30.62
2022-08-25T12:16:20.096Z,30.48
2022-08-25T12:17:19.973Z,30.53
2022-08-25T12:18:19.989Z,30.67
2022-08-25T12:19:19.962Z,30.73
2022-08-25T12:20:20.177Z,30.78
2022-08-25T12:21:19.979Z,30.92
2022-08-25T12:22:19.930Z,30.96
2022-08-25T12:23:19.986Z,31.22
2022-08-25T12:24:19.930Z,31.30
2022-08-25T12:25:19.898Z,31.49
2022-08-25T12:26:19.883Z,31.52
2022-08-25T12:27:19.903Z,31.63
2022-08-25T12:28:19.856Z,31.67
2022-08-25T12:29:21.354Z,31.74
2022-08-25T12:30:20.929Z,31.81
2022-08-25T12:31:20.029Z,32.09
2022-08-25T12:32:20.137Z,31.99
2022-08-25T12:33:19.832Z,32.11
2022-08-25T12:34:19.782Z,32.28
2022-08-25T12:35:19.800Z,32.24
2022-08-25T12:36:19.779Z,32.33
2022-08-25T12:37:19.866Z,32.31
2022-08-25T12:38:19.747Z,32.28
2022-08-25T12:39:19.755Z,32.28
2022-08-25T12:40:19.770Z,32.09
2022-08-25T12:41:19.676Z,31.84
2022-08-25T12:42:21.975Z,32.06
2022-08-25T12:43:19.872Z,32.16
2022-08-25T12:44:19.653Z,31.76
2022-08-25T12:45:19.724Z,31.23
2022-08-25T12:46:19.755Z,31.04
2022-08-25T12:47:19.601Z,30.70
2022-08-25T12:48:19.597Z,30.39
2022-08-25T12:49:19.571Z,30.30
2022-08-25T12:50:19.572Z,30.56
2022-08-25T12:51:19.664Z,30.68
2022-08-25T12:52:19.566Z,30.59
2022-08-25T12:53:19.522Z,30.74
2022-08-25T12:54:22.506Z,30.71